Flight Track Log - Related Links

Times and Time Zones

All times are in EST time to prevent confusion due to time zone crossing. See the ASQ4252 flight status page for this flight to view local times or setup timezone preferences in your user account.

Time Position Orientation Groundspeed Altitude Reporting Facility
EST Latitude Longitude Course Direction KTS MPH feet Rate Location/Type
Wed 03:18:55 PM 30.5761 -91.2028 270° West 180 207 24,000  Level Houston Center
Wed 03:19:57 PM 30.5617 -91.2681 256° West 240 276 5,300 -7,935 Descending Houston Center
Wed 03:20:59 PM 30.5414 -91.3458 253° West 249 287 7,600 2,226 Climbing Houston Center
Wed 03:22:01 PM 30.5233 -91.4333 257° West 267 307 9,900 1,935 Climbing Houston Center
Wed 03:23:03 PM 30.4758 -91.5378 242° Southwest 302 348 11,600 1,548 Climbing Houston Center
Wed 03:24:00 PM 30.4599 -91.7759 270° West  Level Estimated
Wed 03:24:05 PM 30.4211 -91.6253 234° Southwest 335 386 13,100  Level Houston Center
Wed 03:25:07 PM 30.3642 -91.7161 234° Southwest 346 398 14,700 1,548 Climbing Houston Center
Wed 03:26:09 PM 30.3042 -91.8100 234° Southwest 348 400 16,300 1,380 Climbing Houston Center
Wed 03:28:14 PM 30.1867 -91.9947 234° Southwest 357 411 19,000 1,444 Climbing Houston Center
Wed 03:29:16 PM 30.1150 -92.1064 233° Southwest 359 413 20,800 1,403 Climbing Houston Center
Wed 03:30:18 PM 30.0544 -92.2011 234° Southwest 366 421 21,900 968 Climbing Houston Center
Wed 03:32:22 PM 29.9250 -92.4000 233° Southwest 389 448 23,800 677 Climbing Houston Center
Wed 03:33:24 PM 29.8583 -92.5047 234° Southwest 400 460 24,000 97 Climbing Houston Center
Wed 03:34:26 PM 29.7889 -92.6119 233° Southwest 412 474 24,000  Level Houston Center
Wed 03:35:28 PM 29.7031 -92.7444 233° Southwest 427 491 24,000  Level Houston Center
Wed 03:36:30 PM 29.6322 -92.8528 233° Southwest 425 489 24,000  Level Houston Center
Wed 03:37:32 PM 29.5878 -92.9683 246° West 404 465 24,000  Level Houston Center
Wed 03:38:35 PM 29.5783 -93.0956 265° West 397 457 24,000  Level Houston Center
Wed 03:39:37 PM 29.5689 -93.2206 265° West 395 455 24,000  Level Houston Center
Wed 03:40:39 PM 29.5594 -93.3647 266° West 397 457 24,000  Level Houston Center
Wed 03:41:41 PM 29.5492 -93.4961 265° West 408 470 24,000 -97 Level Houston Center
Wed 03:42:43 PM 29.5381 -93.6278 264° West 414 476 23,800 -1,065 Descending Houston Center
Wed 03:43:45 PM 29.5283 -93.7575 265° West 411 473 21,800 -1,935 Descending Houston Center
Wed 03:44:47 PM 29.5186 -93.8842 265° West 403 464 19,800 -2,196 Descending Houston Center
Wed 03:45:37 PM 29.5206 -94.0008 271° West 382 440 17,700 -2,032 Descending Houston Center
Wed 03:45:49 PM 29.5228 -94.0061 296° West 389 448 17,700 -1,714 Level Houston Center
Wed 03:46:33 PM 29.5239 -94.1158 271° West 368 423 16,100 -2,129 Descending Houston Center
Wed 03:46:51 PM 29.5269 -94.1475 276° West 375 432 15,500 -2,262 Descending Houston Center
Wed 03:47:34 PM 29.5283 -94.2233 271° West 337 388 13,800 -2,032 Descending Houston Center
Wed 03:47:53 PM 29.5308 -94.2542 275° West 347 399 13,400 -787 Descending Houston Center
Wed 03:48:35 PM 29.5333 -94.3356 272° West 324 373 13,000 -381 Descending Houston Center
Wed 03:48:56 PM 29.5375 -94.3561 283° West 329 379 13,000 -1,161 Level Houston Center
Wed 03:49:37 PM 29.5681 -94.4297 296° West 322 371 11,800 -1,452 Descending Houston Center
Wed 03:49:58 PM 29.5778 -94.4475 302° West 321 369 11,500 -1,179 Descending Houston Center
Wed 03:50:33 PM 29.6033 -94.5117 295° West 299 344 10,700 -1,161 Descending Houston Center
Wed 03:51:00 PM 29.6153 -94.5342 301° West 310 357 10,300 -1,475 Descending Houston Center
Wed 03:51:34 PM 29.6519 -94.5775 314° West 269 310 9,200 -1,645 Descending Houston Center
Wed 03:52:02 PM 29.6772 -94.6056 316° Northwest 268 308 8,600 -1,180 Descending Houston Center
Wed 03:52:35 PM 29.7056 -94.6333 320° Northwest 257 296 8,000 -1,065 Descending Houston Center
Wed 03:53:04 PM 29.7278 -94.6617 312° West 256 295 7,500 -1,082 Descending Houston Center
Wed 03:53:36 PM 29.7539 -94.6994 309° West 250 288 6,900 -871 Descending Houston Center
Wed 03:54:06 PM 29.7725 -94.7225 313° West 252 290 6,600 -968 Descending Houston Center
Wed 03:54:38 PM 29.8000 -94.7611 309° West 248 285 5,900 -871 Descending Houston Center
Wed 03:55:08 PM 29.8167 -94.7817 313° West 248 285 5,700 -590 Descending Houston Center
Wed 03:55:39 PM 29.8433 -94.8181 310° West 239 275 5,300 -581 Descending Houston Center
Wed 03:56:10 PM 29.8586 -94.8411 307° West 242 278 5,100 -677 Descending Houston Center
Wed 03:56:41 PM 29.8753 -94.8889 292° West 237 273 4,600 -774 Descending Houston Center
Wed 03:57:12 PM 29.8892 -94.9250 294° West 240 276 4,300 -700 Descending Houston Center
Wed 03:57:41 PM 29.9031 -94.9603 294° West 240 276 3,900 -774 Descending Houston Center
Wed 03:58:14 PM 29.9161 -94.9939 294° West 239 275 3,500 -774 Descending Houston Center
Wed 03:58:43 PM 29.9306 -95.0292 295° West 232 267 3,100 -667 Descending Houston Center
Wed 03:59:17 PM 29.9439 -95.0581 298° West 234 269 2,800 -484 Descending Houston Center
Wed 03:59:45 PM 29.9594 -95.0931 297° West 217 250 2,600 -387 Descending Houston Center
Wed 04:00:19 PM 29.9708 -95.1203 296° West 225 259 2,400 -393 Descending Houston Center
Wed 04:00:46 PM 29.9764 -95.1608 279° West 215 247 2,200 -387 Descending Houston Center
Wed 04:01:21 PM 29.9761 -95.1853 269° West 214 246 2,000 -536 Descending Houston Center
Wed 04:01:42 PM 29.9769 -95.2139 272° West 160 184 1,700 -774 Descending Houston Center
Wed 04:02:23 PM 29.9772 -95.2447 271° West 179 206 1,200 -716 Descending Houston Center
Wed 04:02:49 PM 29.9772 -95.2619 270° West 128 147 900 -677 Descending Houston Center
Wed 04:03:25 PM 29.9778 -95.2850 272° West 149 171 500 -367 Descending Houston Center
Wed 04:04:27 PM 29.9769 -95.3264 269° West 146 168 300 -194 Descending Houston Center

Login

Don't have an account? Register now (free) for customized features, flight alerts, and more!